createdAt,value
2022-11-18T00:01:46.620Z,98722.28
2022-11-18T00:04:14.386Z,98727.72
2022-11-18T00:06:42.107Z,98729.84
2022-11-18T00:09:10.027Z,98735.75
2022-11-18T00:11:55.492Z,98734.53
2022-11-18T00:14:23.659Z,98739.41
2022-11-18T00:16:51.487Z,98742.34
2022-11-18T00:19:19.696Z,98746.16
2022-11-18T00:21:47.735Z,98746.34
2022-11-18T00:24:15.546Z,98752.63
2022-11-18T00:26:43.394Z,98740.44
2022-11-18T00:29:11.671Z,98740.44
2022-11-18T00:31:39.407Z,98739.41
2022-11-18T00:34:07.224Z,98738.78
2022-11-18T00:36:35.057Z,98739.63
2022-11-18T00:39:02.879Z,98739.63
2022-11-18T00:41:50.662Z,98732.72
2022-11-18T00:44:17.420Z,98732.88
2022-11-18T00:46:45.365Z,98738.78
2022-11-18T00:49:13.125Z,98746.56
2022-11-18T00:51:40.969Z,98747.19
2022-11-18T00:54:08.781Z,98757.72
2022-11-18T00:56:36.549Z,98758.75
2022-11-18T00:59:04.280Z,98757.31
2022-11-18T01:01:32.237Z,98751.88
2022-11-18T01:04:00.168Z,98749.63
2022-11-18T01:06:27.953Z,98763.84
2022-11-18T01:08:55.683Z,98760.28
2022-11-18T01:11:40.789Z,98762.78
2022-11-18T01:14:08.544Z,98752.03
2022-11-18T01:16:36.347Z,98750.53
2022-11-18T01:19:04.102Z,98766.94
2022-11-18T01:21:31.874Z,98754.84
2022-11-18T01:23:59.667Z,98745.84
2022-11-18T01:26:27.423Z,98753.41
2022-11-18T01:28:55.246Z,98751.97
2022-11-18T01:31:23.015Z,98757.41
2022-11-18T01:33:50.810Z,98760.75
2022-11-18T01:36:18.621Z,98752.13
2022-11-18T01:38:46.373Z,98751.28
2022-11-18T01:41:14.218Z,98751.03
2022-11-18T01:43:42.074Z,98740.00
2022-11-18T01:46:09.939Z,98751.16
2022-11-18T01:48:39.224Z,98738.81
2022-11-18T01:51:06.984Z,98743.84
2022-11-18T01:53:35.021Z,98744.09
2022-11-18T01:56:02.777Z,98743.25
2022-11-18T01:58:30.517Z,98746.38
2022-11-18T02:00:58.297Z,98742.81
2022-11-18T02:03:26.095Z,98745.75
2022-11-18T02:05:53.948Z,98741.84
2022-11-18T02:08:21.937Z,98746.59
2022-11-18T02:10:49.660Z,98747.66
2022-11-18T02:13:17.663Z,98748.03
2022-11-18T02:15:45.468Z,98749.47
2022-11-18T02:18:13.237Z,98755.16
2022-11-18T02:20:41.023Z,98747.41
2022-11-18T02:23:08.796Z,98755.16
2022-11-18T02:25:36.569Z,98757.88
2022-11-18T02:28:04.355Z,98752.50
2022-11-18T02:30:32.162Z,98757.09
2022-11-18T02:32:59.942Z,98755.47
2022-11-18T02:35:27.734Z,98761.28
2022-11-18T02:37:55.534Z,98759.16
2022-11-18T02:40:23.313Z,98766.94
2022-11-18T02:42:51.115Z,98759.22
2022-11-18T02:45:18.871Z,98754.22
2022-11-18T02:47:46.725Z,98762.63
2022-11-18T02:50:14.469Z,98764.34
2022-11-18T02:52:42.324Z,98762.06
2022-11-18T02:55:10.080Z,98758.44
2022-11-18T02:57:37.866Z,98765.44
2022-11-18T03:00:05.665Z,98763.91
2022-11-18T03:02:33.529Z,98764.34
2022-11-18T03:05:01.304Z,98761.63
2022-11-18T03:07:29.176Z,98765.59
2022-11-18T03:09:57.040Z,98771.69
2022-11-18T03:12:24.849Z,98770.88
2022-11-18T03:14:52.657Z,98767.72
2022-11-18T03:17:20.379Z,98774.63
2022-11-18T03:19:48.196Z,98781.31
2022-11-18T03:22:15.977Z,98781.31
2022-11-18T03:24:43.803Z,98787.81
2022-11-18T03:27:13.053Z,98792.00
2022-11-18T03:29:40.815Z,98796.63
2022-11-18T03:32:08.570Z,98800.00
2022-11-18T03:34:36.320Z,98807.72
2022-11-18T03:37:09.047Z,98806.69
2022-11-18T03:39:38.319Z,98814.88
2022-11-18T03:42:06.097Z,98814.47
2022-11-18T03:44:33.915Z,98812.97
2022-11-18T03:47:01.699Z,98818.00
2022-11-18T03:49:30.259Z,98821.53
2022-11-18T03:51:58.129Z,98828.06
2022-11-18T03:54:25.888Z,98828.06
2022-11-18T03:56:53.706Z,98826.38
2022-11-18T03:59:21.589Z,98830.53
2022-11-18T04:01:49.805Z,98834.34
2022-11-18T04:04:17.660Z,98834.53
2022-11-18T04:06:45.411Z,98843.13
2022-11-18T04:09:13.166Z,98849.66
2022-11-18T04:11:58.419Z,98848.16
2022-11-18T04:14:26.216Z,98841.84
2022-11-18T04:16:54.175Z,98849.19
2022-11-18T04:19:22.268Z,98844.78
2022-11-18T04:21:50.289Z,98842.88
2022-11-18T04:24:18.049Z,98844.41
2022-11-18T04:26:45.852Z,98841.69
2022-11-18T04:29:13.650Z,98849.19
2022-11-18T04:31:41.382Z,98854.66
2022-11-18T04:34:09.202Z,98853.00
2022-11-18T04:36:36.967Z,98849.41
2022-11-18T04:39:04.739Z,98851.31
2022-11-18T04:41:49.812Z,98852.38
2022-11-18T04:44:17.631Z,98859.31
2022-11-18T04:46:45.363Z,98866.66
2022-11-18T04:49:13.274Z,98859.53
2022-11-18T04:51:41.084Z,98864.38
2022-11-18T04:54:08.870Z,98858.31
2022-11-18T04:56:36.709Z,98862.09
2022-11-18T04:59:04.487Z,98866.31
2022-11-18T05:01:32.432Z,98862.97
2022-11-18T05:04:00.285Z,98857.75
2022-11-18T05:06:28.202Z,98876.81
2022-11-18T05:08:56.150Z,98877.66
2022-11-18T05:11:41.330Z,98883.31
2022-11-18T05:14:09.306Z,98884.38
2022-11-18T05:16:37.182Z,98886.03
2022-11-18T05:19:05.497Z,98889.38
2022-11-18T05:21:33.397Z,98891.47
2022-11-18T05:24:01.259Z,98898.19
2022-11-18T05:26:29.158Z,98895.69
2022-11-18T05:28:57.031Z,98905.31
2022-11-18T05:31:24.837Z,98897.97
2022-11-18T05:33:52.733Z,98905.31
2022-11-18T05:36:20.473Z,98912.41
2022-11-18T05:38:48.284Z,98911.38
2022-11-18T05:41:36.088Z,98916.19
2022-11-18T05:44:02.884Z,98915.38
2022-11-18T05:46:30.670Z,98923.09
2022-11-18T05:48:58.550Z,98926.25
2022-11-18T05:51:26.333Z,98925.03
2022-11-18T05:53:54.113Z,98928.75
2022-11-18T05:56:21.980Z,98936.53
2022-11-18T05:58:49.782Z,98935.47
2022-11-18T06:01:17.701Z,98934.25
2022-11-18T06:03:45.469Z,98942.59
2022-11-18T06:06:15.516Z,98950.75
2022-11-18T06:08:43.303Z,98949.69
2022-11-18T06:11:11.183Z,98950.53
2022-11-18T06:13:38.979Z,98957.47
2022-11-18T06:16:06.793Z,98952.03
2022-11-18T06:18:34.738Z,98949.53
2022-11-18T06:21:02.555Z,98966.47
2022-11-18T06:23:30.451Z,98961.25
2022-11-18T06:25:58.190Z,98962.69
2022-11-18T06:28:26.070Z,98965.41
2022-11-18T06:30:53.931Z,98968.97
2022-11-18T06:33:21.761Z,98969.81
2022-11-18T06:35:49.533Z,98978.19
2022-11-18T06:38:17.410Z,98983.63
2022-11-18T06:40:45.357Z,98988.25
2022-11-18T06:43:30.880Z,98990.34
2022-11-18T06:46:16.023Z,98988.91
2022-11-18T06:48:43.896Z,98995.16
2022-11-18T06:51:11.709Z,99000.00
2022-11-18T06:53:39.514Z,99000.84
2022-11-18T06:56:07.429Z,99003.56
2022-11-18T06:58:35.249Z,99008.16
2022-11-18T07:01:03.183Z,99009.22
2022-11-18T07:03:30.997Z,99017.59
2022-11-18T07:05:58.774Z,99010.69
2022-11-18T07:08:26.542Z,99027.88
2022-11-18T07:10:54.283Z,99028.66
2022-11-18T07:13:22.114Z,99020.50
2022-11-18T07:15:49.930Z,99029.75
2022-11-18T07:18:17.911Z,99031.00
2022-11-18T07:20:45.803Z,99031.63
2022-11-18T07:23:13.601Z,99029.94
2022-11-18T07:25:45.144Z,99042.94
2022-11-18T07:28:13.236Z,99038.09
2022-11-18T07:30:41.092Z,99052.56
2022-11-18T07:33:08.857Z,99053.19
2022-11-18T07:35:36.732Z,99051.31
2022-11-18T07:38:04.503Z,99047.75
2022-11-18T07:40:32.370Z,99052.81
2022-11-18T07:43:00.179Z,99053.63
2022-11-18T07:45:27.941Z,99052.56
2022-11-18T07:47:55.776Z,99056.56
2022-11-18T07:50:23.731Z,99059.69
2022-11-18T07:52:51.556Z,99068.28
2022-11-18T07:55:19.311Z,99079.97
2022-11-18T07:57:47.108Z,99076.00
2022-11-18T08:00:14.947Z,99075.19
2022-11-18T08:02:43.820Z,99074.97
2022-11-18T08:05:17.695Z,99076.00
2022-11-18T08:07:45.979Z,99082.50
2022-11-18T08:10:13.758Z,99086.28
2022-11-18T08:12:41.499Z,99090.03
2022-11-18T08:15:09.269Z,99089.63
2022-11-18T08:17:37.074Z,99095.06
2022-11-18T08:20:04.867Z,99097.78
2022-11-18T08:22:32.627Z,99100.50
2022-11-18T08:25:00.402Z,99101.56
2022-11-18T08:27:28.163Z,99100.72
2022-11-18T08:29:55.929Z,99104.28
2022-11-18T08:32:23.868Z,99104.28
2022-11-18T08:34:51.623Z,99106.38
2022-11-18T08:37:19.357Z,99118.75
2022-11-18T08:39:47.199Z,99124.41
2022-11-18T08:42:14.961Z,99126.28
2022-11-18T08:44:42.770Z,99126.50
2022-11-18T08:47:10.800Z,99136.56
2022-11-18T08:49:38.596Z,99135.72
2022-11-18T08:52:06.446Z,99133.63
2022-11-18T08:54:34.298Z,99138.25
2022-11-18T08:57:02.096Z,99137.19
2022-11-18T08:59:29.833Z,99143.88
2022-11-18T09:01:57.761Z,99138.25
2022-11-18T09:04:25.551Z,99142.00
2022-11-18T09:06:53.364Z,99144.91
2022-11-18T09:09:21.394Z,99150.16
2022-11-18T09:11:49.292Z,99146.41
2022-11-18T09:15:12.325Z,99139.06
2022-11-18T09:17:06.280Z,99150.16
2022-11-18T09:19:52.086Z,99155.59
2022-11-18T09:22:19.844Z,99164.41
2022-11-18T09:24:47.642Z,99163.34
2022-11-18T09:27:17.337Z,99172.34
2022-11-18T09:29:45.703Z,99180.91
2022-11-18T09:32:13.544Z,99173.63
2022-11-18T09:34:41.353Z,99186.59
2022-11-18T09:37:09.094Z,99192.66
2022-11-18T09:39:37.613Z,99206.69
2022-11-18T09:42:05.477Z,99210.66
2022-11-18T09:44:33.284Z,99208.13
2022-11-18T09:47:01.063Z,99199.25
2022-11-18T09:49:28.883Z,99198.25
2022-11-18T09:51:56.664Z,99202.69
2022-11-18T09:54:24.399Z,99207.81
2022-11-18T09:56:52.289Z,99204.47
2022-11-18T09:59:20.173Z,99206.25
2022-11-18T10:01:48.036Z,99213.06
2022-11-18T10:04:16.787Z,99220.25
2022-11-18T10:06:44.650Z,99225.97
2022-11-18T10:09:13.387Z,99224.06
2022-11-18T10:11:42.730Z,99224.19
2022-11-18T10:14:12.949Z,99236.50
2022-11-18T10:16:42.297Z,99242.09
2022-11-18T10:19:10.054Z,99240.97
2022-11-18T10:21:37.791Z,99251.53
2022-11-18T10:24:05.548Z,99247.38
2022-11-18T10:26:33.322Z,99247.06
2022-11-18T10:29:01.133Z,99255.06
2022-11-18T10:31:28.879Z,99245.69
2022-11-18T10:33:56.664Z,99248.50
2022-11-18T10:36:24.431Z,99254.19
2022-11-18T10:38:52.199Z,99267.44
2022-11-18T10:41:20.012Z,99272.47
2022-11-18T10:43:48.672Z,99269.53
2022-11-18T10:46:16.451Z,99272.50
2022-11-18T10:48:44.240Z,99271.47
2022-11-18T10:54:21.303Z,99273.38
2022-11-18T10:57:06.546Z,99288.06
2022-11-18T10:59:35.064Z,99284.91
2022-11-18T11:02:08.364Z,99293.53
2022-11-18T11:04:45.605Z,99291.81
2022-11-18T11:07:13.418Z,99303.16
2022-11-18T11:09:41.263Z,99297.94
2022-11-18T11:12:15.074Z,99305.25
2022-11-18T11:14:42.948Z,99312.81
2022-11-18T11:17:11.056Z,99316.13
2022-11-18T11:19:39.005Z,99314.47
2022-11-18T11:22:06.795Z,99324.13
2022-11-18T11:24:34.589Z,99318.47
2022-11-18T11:29:50.185Z,99318.88
2022-11-18T11:32:18.206Z,99319.94
2022-11-18T11:34:46.127Z,99317.41
2022-11-18T11:37:14.068Z,99325.38
2022-11-18T11:39:41.907Z,99312.19
2022-11-18T11:42:09.702Z,99325.16
2022-11-18T11:44:37.600Z,99317.19
2022-11-18T11:47:22.874Z,99326.41
2022-11-18T11:49:50.764Z,99326.22
2022-11-18T11:52:18.610Z,99337.09
2022-11-18T11:54:46.447Z,99333.97
2022-11-18T11:57:14.344Z,99328.72
2022-11-18T11:59:42.272Z,99328.72
2022-11-18T12:02:15.691Z,99342.13
2022-11-18T12:04:43.714Z,99342.56
2022-11-18T12:07:11.823Z,99346.72
2022-11-18T12:09:39.702Z,99346.91
2022-11-18T12:12:27.564Z,99344.19
2022-11-18T12:14:55.424Z,99356.34
2022-11-18T12:17:23.299Z,99355.50
2022-11-18T12:19:51.098Z,99351.31
2022-11-18T12:22:18.874Z,99356.75
2022-11-18T12:24:46.838Z,99354.25
2022-11-18T12:27:14.724Z,99354.25
2022-11-18T12:29:42.583Z,99362.19
2022-11-18T12:32:10.430Z,99368.47
2022-11-18T12:34:38.346Z,99367.63
2022-11-18T12:37:06.185Z,99373.50
2022-11-18T12:39:33.979Z,99375.16
2022-11-18T12:42:19.688Z,99381.03
2022-11-18T12:44:47.516Z,99385.22
2022-11-18T12:47:15.529Z,99381.44
2022-11-18T12:49:43.338Z,99390.66
2022-11-18T12:52:11.499Z,99389.59
2022-11-18T12:54:39.424Z,99391.50
2022-11-18T12:57:07.314Z,99394.44
2022-11-18T12:59:35.594Z,99409.50
2022-11-18T13:02:03.459Z,99406.56
2022-11-18T13:04:31.397Z,99409.72
2022-11-18T13:07:02.896Z,99404.91
2022-11-18T13:09:30.949Z,99408.47
2022-11-18T13:11:58.959Z,99415.38
2022-11-18T13:14:44.371Z,99408.47
2022-11-18T13:17:30.058Z,99410.31
2022-11-18T13:19:58.128Z,99412.44
2022-11-18T13:22:43.378Z,99419.94
2022-11-18T13:25:11.262Z,99420.78
2022-11-18T13:27:39.147Z,99420.97
2022-11-18T13:30:08.839Z,99420.78
2022-11-18T13:32:36.691Z,99428.94
2022-11-18T13:35:05.381Z,99429.78
2022-11-18T13:37:34.170Z,99437.31
2022-11-18T13:40:02.033Z,99437.72
2022-11-18T13:42:29.954Z,99438.34
2022-11-18T13:44:57.861Z,99450.06
2022-11-18T13:47:25.746Z,99448.00
2022-11-18T13:49:54.970Z,99456.97
2022-11-18T13:52:23.047Z,99460.72
2022-11-18T13:54:50.953Z,99458.22
2022-11-18T13:57:19.851Z,99464.69
2022-11-18T13:59:47.810Z,99463.03
2022-11-18T14:02:15.719Z,99473.06
2022-11-18T14:04:43.569Z,99471.19
2022-11-18T14:07:11.493Z,99473.06
2022-11-18T14:09:39.391Z,99485.84
2022-11-18T14:12:07.625Z,99482.47
2022-11-18T14:14:35.550Z,99493.56
2022-11-18T14:17:03.432Z,99491.88
2022-11-18T14:19:31.343Z,99501.94
2022-11-18T14:21:59.211Z,99500.22
2022-11-18T14:24:27.073Z,99497.50
2022-11-18T14:26:54.941Z,99504.00
2022-11-18T14:29:23.389Z,99506.97
2022-11-18T14:31:51.350Z,99509.47
2022-11-18T14:34:19.635Z,99509.03
2022-11-18T14:36:47.474Z,99513.63
2022-11-18T14:39:30.559Z,99522.56
2022-11-18T14:41:58.469Z,99529.44
2022-11-18T14:44:26.337Z,99528.63
2022-11-18T14:46:55.436Z,99531.44
2022-11-18T14:49:23.621Z,99542.31
2022-11-18T14:51:51.747Z,99541.75
2022-11-18T14:54:25.942Z,99545.66
2022-11-18T14:56:54.979Z,99540.28
2022-11-18T14:59:22.851Z,99538.75
2022-11-18T15:01:50.845Z,99556.25
2022-11-18T15:04:21.003Z,99551.66
2022-11-18T15:06:49.248Z,99561.72
2022-11-18T15:09:17.171Z,99564.41
2022-11-18T15:11:45.084Z,99563.53
2022-11-18T15:14:12.950Z,99566.38
2022-11-18T15:16:40.856Z,99566.72
2022-11-18T15:19:08.762Z,99575.00
2022-11-18T15:21:36.637Z,99571.53
2022-11-18T15:24:08.877Z,99578.03
2022-11-18T15:26:37.379Z,99579.03
2022-11-18T15:29:05.237Z,99573.63
2022-11-18T15:31:33.069Z,99578.34
2022-11-18T15:34:06.402Z,99580.16
2022-11-18T15:36:46.286Z,99575.72
2022-11-18T15:39:14.161Z,99576.13
2022-11-18T15:41:42.070Z,99588.97
2022-11-18T15:44:10.084Z,99588.50
2022-11-18T15:46:39.467Z,99583.31
2022-11-18T15:49:09.471Z,99588.09
2022-11-18T15:51:37.865Z,99585.78
2022-11-18T15:54:05.774Z,99600.16
2022-11-18T15:56:33.953Z,99590.28
2022-11-18T15:59:01.812Z,99592.94
2022-11-18T16:01:29.783Z,99600.69
2022-11-18T16:03:57.727Z,99597.75
2022-11-18T16:06:25.647Z,99603.22
2022-11-18T16:08:59.237Z,99614.31
2022-11-18T16:11:45.483Z,99602.38
2022-11-18T16:14:13.391Z,99604.63
2022-11-18T16:16:41.294Z,99610.13
2022-11-18T16:19:09.190Z,99615.38
2022-11-18T16:21:37.119Z,99613.63
2022-11-18T16:24:05.050Z,99621.75
2022-11-18T16:26:32.975Z,99613.88
2022-11-18T16:29:00.861Z,99633.16
2022-11-18T16:31:44.744Z,99632.44
2022-11-18T16:34:12.677Z,99636.94
2022-11-18T16:36:40.537Z,99635.78
2022-11-18T16:39:08.680Z,99636.84
2022-11-18T16:41:36.565Z,99639.69
2022-11-18T16:44:04.658Z,99638.84
2022-11-18T16:46:32.610Z,99651.16
2022-11-18T16:49:00.550Z,99659.19
2022-11-18T16:51:28.478Z,99651.34
2022-11-18T16:53:56.300Z,99650.47
2022-11-18T16:56:24.086Z,99656.06
2022-11-18T16:58:51.832Z,99656.94
2022-11-18T17:01:24.685Z,99665.09
2022-11-18T17:03:55.694Z,99667.53
2022-11-18T17:06:23.467Z,99677.06
2022-11-18T17:08:51.347Z,99671.09
2022-11-18T17:11:19.075Z,99683.44
2022-11-18T17:13:46.924Z,99679.63
2022-11-18T17:16:14.692Z,99684.59
2022-11-18T17:18:42.495Z,99686.63
2022-11-18T17:21:11.044Z,99691.50
2022-11-18T17:23:38.966Z,99686.69
2022-11-18T17:26:08.874Z,99687.53
2022-11-18T17:28:36.708Z,99697.50
2022-11-18T17:31:04.497Z,99696.25
2022-11-18T17:33:32.264Z,99705.94
2022-11-18T17:36:00.573Z,99704.09
2022-11-18T17:38:28.430Z,99707.50
2022-11-18T17:40:56.253Z,99708.28
2022-11-18T17:43:24.019Z,99715.38
2022-11-18T17:45:52.361Z,99709.00
2022-11-18T17:48:20.149Z,99718.13
2022-11-18T17:50:48.276Z,99719.78
2022-11-18T17:53:16.206Z,99720.31
2022-11-18T17:55:44.394Z,99737.06
2022-11-18T17:58:12.164Z,99736.13
2022-11-18T18:00:39.905Z,99731.84
2022-11-18T18:03:07.694Z,99738.34
2022-11-18T18:05:37.817Z,99744.03
2022-11-18T18:08:09.943Z,99737.66
2022-11-18T18:10:37.815Z,99748.19
2022-11-18T18:13:23.490Z,99757.38
2022-11-18T18:15:51.764Z,99770.56
2022-11-18T18:18:19.535Z,99775.34
2022-11-18T18:20:47.512Z,99777.03
2022-11-18T18:23:15.300Z,99781.38
2022-11-18T18:25:43.216Z,99797.00
2022-11-18T18:28:11.410Z,99790.25
2022-11-18T18:30:39.204Z,99783.84
2022-11-18T18:33:07.005Z,99778.06
2022-11-18T18:35:35.353Z,99784.00
2022-11-18T18:38:03.163Z,99787.25
2022-11-18T18:40:31.048Z,99785.22
2022-11-18T18:42:58.795Z,99786.56
2022-11-18T18:45:40.329Z,99773.44
2022-11-18T18:48:08.346Z,99781.38
2022-11-18T18:50:36.139Z,99787.16
2022-11-18T18:53:03.944Z,99779.56
2022-11-18T18:55:31.845Z,99773.94
2022-11-18T18:57:59.688Z,99778.63
2022-11-18T19:00:27.462Z,99788.47
2022-11-18T19:02:55.571Z,99795.34
2022-11-18T19:05:44.682Z,99795.72
2022-11-18T19:08:11.442Z,99801.25
2022-11-18T19:10:39.314Z,99807.91
2022-11-18T19:13:06.286Z,99797.81
2022-11-18T19:15:34.958Z,99803.59
2022-11-18T19:18:03.038Z,99807.94
2022-11-18T19:20:37.652Z,99813.44
2022-11-18T19:23:10.111Z,99810.16
2022-11-18T19:25:38.519Z,99824.53
2022-11-18T19:28:06.581Z,99823.75
2022-11-18T19:30:34.389Z,99828.31
2022-11-18T19:33:02.426Z,99828.03
2022-11-18T19:35:30.220Z,99823.53
2022-11-18T19:37:58.064Z,99827.91
2022-11-18T19:40:25.873Z,99829.28
2022-11-18T19:42:53.598Z,99827.31
2022-11-18T19:45:21.540Z,99836.16
2022-11-18T19:47:49.301Z,99829.81
2022-11-18T19:50:17.071Z,99825.16
2022-11-18T19:52:44.833Z,99836.50
2022-11-18T19:55:12.863Z,99831.69
2022-11-18T19:57:40.867Z,99834.25
2022-11-18T20:00:08.736Z,99836.16
2022-11-18T20:02:36.656Z,99843.69
2022-11-18T20:05:22.063Z,99846.16
2022-11-18T20:07:50.028Z,99841.22
2022-11-18T20:10:17.822Z,99854.41
2022-11-18T20:12:45.905Z,99849.19
2022-11-18T20:15:13.760Z,99852.84
2022-11-18T20:17:41.507Z,99848.72
2022-11-18T20:20:09.317Z,99851.28
2022-11-18T20:22:37.257Z,99852.59
2022-11-18T20:25:05.211Z,99858.53
2022-11-18T20:27:33.075Z,99861.91
2022-11-18T20:30:00.837Z,99868.66
2022-11-18T20:32:28.722Z,99875.81
2022-11-18T20:34:56.578Z,99865.53
2022-11-18T20:37:27.868Z,99873.75
2022-11-18T20:39:56.006Z,99879.00
2022-11-18T20:42:41.321Z,99877.31
2022-11-18T20:45:09.246Z,99875.25
2022-11-18T20:47:37.236Z,99880.50
2022-11-18T20:50:05.062Z,99875.03
2022-11-18T20:52:33.108Z,99868.72
2022-11-18T20:55:05.445Z,99879.22
2022-11-18T20:57:33.800Z,99887.38
2022-11-18T21:00:01.779Z,99886.13
2022-11-18T21:02:29.553Z,99886.75
2022-11-18T21:04:57.328Z,99889.28
2022-11-18T21:07:25.240Z,99885.25
2022-11-18T21:09:53.024Z,99885.69
2022-11-18T21:12:21.003Z,99888.19
2022-11-18T21:14:48.509Z,99889.00
2022-11-18T21:17:16.311Z,99900.34
2022-11-18T21:19:47.412Z,99890.91
2022-11-18T21:22:15.505Z,99895.28
2022-11-18T21:24:43.407Z,99895.91
2022-11-18T21:27:11.221Z,99904.50
2022-11-18T21:29:39.440Z,99898.59
2022-11-18T21:32:07.209Z,99900.47
2022-11-18T21:34:35.127Z,99907.19
2022-11-18T21:37:02.935Z,99896.66
2022-11-18T21:39:30.806Z,99897.72
2022-11-18T21:42:09.792Z,99898.31
2022-11-18T21:44:37.711Z,99896.81
2022-11-18T21:47:05.602Z,99904.97
2022-11-18T21:49:33.465Z,99908.31
2022-11-18T21:52:01.195Z,99919.63
2022-11-18T21:54:29.048Z,99921.69
2022-11-18T21:56:56.822Z,99924.84
2022-11-18T21:59:24.574Z,99919.31
2022-11-18T22:01:52.333Z,99923.31
2022-11-18T22:04:34.061Z,99925.78
2022-11-18T22:07:02.008Z,99931.22
2022-11-18T22:09:35.800Z,99928.25
2022-11-18T22:12:07.040Z,99940.38
2022-11-18T22:14:35.537Z,99932.78
2022-11-18T22:17:03.429Z,99930.66
2022-11-18T22:19:31.404Z,99938.66
2022-11-18T22:21:59.157Z,99939.88
2022-11-18T22:24:27.016Z,99943.00
2022-11-18T22:26:54.779Z,99953.25
2022-11-18T22:29:24.249Z,99949.69
2022-11-18T22:31:52.030Z,99937.94
2022-11-18T22:34:19.796Z,99936.91
2022-11-18T22:36:47.597Z,99942.56
2022-11-18T22:39:15.437Z,99953.19
2022-11-18T22:42:01.010Z,99954.50
2022-11-18T22:44:28.772Z,99955.53
2022-11-18T22:46:56.519Z,99961.38
2022-11-18T22:49:24.453Z,99974.16
2022-11-18T22:51:52.249Z,99971.44
2022-11-18T22:56:48.003Z,99976.69
2022-11-18T22:59:15.775Z,99975.47
2022-11-18T23:01:43.770Z,99979.22
2022-11-18T23:04:11.612Z,99976.03
2022-11-18T23:06:39.382Z,99988.84
2022-11-18T23:09:07.181Z,99990.31
2022-11-18T23:11:52.326Z,99985.06
2022-11-18T23:14:20.208Z,99990.50
2022-11-18T23:16:47.950Z,99998.69
2022-11-18T23:19:15.767Z,99998.91
2022-11-18T23:21:43.586Z,100005.34
2022-11-18T23:24:11.341Z,100011.66
2022-11-18T23:26:39.100Z,100016.47
2022-11-18T23:29:06.941Z,100021.25
2022-11-18T23:31:34.695Z,100022.09
2022-11-18T23:34:02.699Z,100025.00
2022-11-18T23:36:30.519Z,100015.81
2022-11-18T23:38:58.481Z,100023.34
2022-11-18T23:41:26.641Z,100021.38
2022-11-18T23:43:54.439Z,100014.22
2022-11-18T23:46:22.350Z,100017.34
2022-11-18T23:48:50.206Z,100023.19
2022-11-18T23:51:17.982Z,100024.19
2022-11-18T23:53:45.862Z,100025.25
2022-11-18T23:56:13.696Z,100026.69
2022-11-18T23:58:41.501Z,100024.97
